Time;durP1;ratioP1;P1;durP2;ratioP2;P2;SDS_P1;SDS_P2;PMS_P1;PMS_P2;Temp;Humidity;BMP_temperature;BMP_pressure;BME280_temperature;BME280_humidity;BME280_pressure;Samples;Min_cycle;Max_cycle;Signal;HPM_P1;HPM_P2
2024/01/18 00:00:53;;;;;;;28.50;16.55;;;;;;;;;;4956294;28;25081;-67
2024/01/18 00:03:19;;;;;;;32.03;16.77;;;;;;;;;;4954174;28;25053;-67
2024/01/18 00:05:45;;;;;;;27.65;16.15;;;;;;;;;;4948063;28;25128;-68
2024/01/18 00:08:11;;;;;;;29.38;16.20;;;;;;;;;;4943729;28;25149;-67
2024/01/18 00:10:37;;;;;;;28.10;16.45;;;;;;;;;;4957811;28;25171;-68
2024/01/18 00:13:03;;;;;;;29.20;17.98;;;;;;;;;;4954376;28;25069;-67
2024/01/18 00:15:29;;;;;;;34.20;18.15;;;;;;;;;;4952257;28;25082;-68
2024/01/18 00:17:55;;;;;;;30.77;19.75;;;;;;;;;;4950499;28;25064;-67
2024/01/18 00:20:23;;;;;;;34.17;23.23;;;;;;;;;;4947244;28;25146;-68
2024/01/18 00:22:49;;;;;;;37.45;22.38;;;;;;;;;;4947200;28;25054;-67
2024/01/18 00:25:15;;;;;;;34.28;21.85;;;;;;;;;;4950078;28;25070;-69
2024/01/18 00:27:41;;;;;;;44.00;25.30;;;;;;;;;;4947803;28;25152;-67
2024/01/18 00:30:07;;;;;;;49.60;24.90;;;;;;;;;;4948074;28;25099;-67
2024/01/18 00:32:33;;;;;;;42.83;25.17;;;;;;;;;;4951406;28;25118;-68
2024/01/18 00:34:59;;;;;;;40.05;25.40;;;;;;;;;;4943933;28;25146;-68
2024/01/18 00:37:25;;;;;;;38.63;24.38;;;;;;;;;;4949619;28;25118;-66
2024/01/18 00:39:51;;;;;;;37.35;23.88;;;;;;;;;;4952993;28;25093;-67
2024/01/18 00:42:17;;;;;;;37.85;25.20;;;;;;;;;;4953576;28;25419;-69
2024/01/18 00:44:43;;;;;;;39.42;24.23;;;;;;;;;;4958762;28;25046;-67
2024/01/18 00:47:09;;;;;;;39.78;26.08;;;;;;;;;;4953885;28;25066;-67
2024/01/18 00:49:35;;;;;;;62.78;37.20;;;;;;;;;;4956622;28;25078;-68
2024/01/18 00:52:02;;;;;;;63.00;36.50;;;;;;;;;;4950328;28;25091;-68
2024/01/18 00:54:28;;;;;;;59.88;35.78;;;;;;;;;;4952515;28;25084;-67
2024/01/18 00:56:54;;;;;;;41.53;28.75;;;;;;;;;;4952841;28;25062;-68
2024/01/18 00:59:20;;;;;;;47.72;29.55;;;;;;;;;;4953035;28;25073;-67
2024/01/18 01:01:46;;;;;;;42.75;29.08;;;;;;;;;;4956058;28;25150;-67
2024/01/18 01:04:12;;;;;;;53.28;32.22;;;;;;;;;;4953691;28;25174;-67
2024/01/18 01:06:38;;;;;;;49.45;28.80;;;;;;;;;;4951752;28;25129;-68
2024/01/18 01:09:06;;;;;;;44.30;27.60;;;;;;;;;;4948098;28;25050;-67
2024/01/18 01:11:32;;;;;;;36.65;24.05;;;;;;;;;;4954141;28;25052;-68
2024/01/18 01:13:58;;;;;;;35.35;20.67;;;;;;;;;;4948541;28;25094;-67
2024/01/18 01:16:24;;;;;;;34.38;20.38;;;;;;;;;;4949415;28;25096;-65
2024/01/18 01:18:50;;;;;;;36.92;19.33;;;;;;;;;;4950969;28;25066;-68
2024/01/18 01:21:16;;;;;;;31.42;16.85;;;;;;;;;;4950284;28;25082;-68
2024/01/18 01:23:48;;;;;;;23.20;13.93;;;;;;;;;;4950772;28;25091;-69
2024/01/18 01:26:15;;;;;;;27.17;15.45;;;;;;;;;;4948601;28;25177;-67
2024/01/18 01:28:41;;;;;;;24.58;13.18;;;;;;;;;;4946515;28;25146;-69
2024/01/18 01:31:07;;;;;;;22.92;12.60;;;;;;;;;;4949436;28;25078;-67
2024/01/18 01:33:33;;;;;;;22.98;11.57;;;;;;;;;;4945054;28;25070;-67
2024/01/18 01:35:59;;;;;;;23.05;11.82;;;;;;;;;;4948516;28;25061;-67
2024/01/18 01:38:25;;;;;;;21.35;12.60;;;;;;;;;;4937820;28;25122;-67
2024/01/18 01:40:50;;;;;;;21.13;12.43;;;;;;;;;;4945911;28;25068;-67
2024/01/18 01:43:17;;;;;;;20.13;11.68;;;;;;;;;;4949519;28;25099;-67
2024/01/18 01:45:43;;;;;;;23.40;14.18;;;;;;;;;;4952991;28;25052;-67
2024/01/18 01:48:09;;;;;;;25.98;14.20;;;;;;;;;;4948982;28;25173;-68
2024/01/18 01:50:36;;;;;;;22.45;13.70;;;;;;;;;;4952820;28;25069;-67
2024/01/18 01:53:02;;;;;;;29.90;15.27;;;;;;;;;;4950301;28;25086;-68
2024/01/18 01:55:28;;;;;;;25.02;14.95;;;;;;;;;;4942163;28;25182;-68
2024/01/18 01:57:54;;;;;;;20.05;14.52;;;;;;;;;;4950732;28;25123;-67
2024/01/18 02:00:21;;;;;;;21.58;14.57;;;;;;;;;;4946487;28;25108;-68
2024/01/18 02:02:47;;;;;;;23.60;15.05;;;;;;;;;;4951119;28;25072;-67
2024/01/18 02:05:13;;;;;;;25.75;14.63;;;;;;;;;;4954215;28;25070;-68
2024/01/18 02:07:39;;;;;;;26.27;14.05;;;;;;;;;;4953422;28;25063;-68
2024/01/18 02:10:06;;;;;;;24.60;14.05;;;;;;;;;;4950981;28;25064;-68
2024/01/18 02:12:33;;;;;;;19.20;13.80;;;;;;;;;;4946970;28;25158;-68
2024/01/18 02:14:59;;;;;;;19.92;14.43;;;;;;;;;;4946924;28;25064;-68
2024/01/18 02:17:25;;;;;;;21.27;14.88;;;;;;;;;;4943314;28;25055;-68
2024/01/18 02:19:50;;;;;;;26.02;14.88;;;;;;;;;;4948644;28;25090;-67
2024/01/18 02:22:17;;;;;;;24.73;14.95;;;;;;;;;;4941620;28;25117;-67
2024/01/18 02:24:46;;;;;;;22.05;14.35;;;;;;;;;;4947337;28;25055;-67
2024/01/18 02:27:12;;;;;;;22.92;15.60;;;;;;;;;;4938515;28;25138;-68
2024/01/18 02:29:38;;;;;;;20.75;13.85;;;;;;;;;;4943655;28;25072;-68
2024/01/18 02:32:04;;;;;;;21.45;12.63;;;;;;;;;;4945683;28;25074;-66
2024/01/18 02:34:30;;;;;;;15.65;10.43;;;;;;;;;;4941383;28;25100;-68
2024/01/18 02:36:56;;;;;;;18.58;11.35;;;;;;;;;;4945763;28;25118;-68
2024/01/18 02:39:22;;;;;;;16.90;9.88;;;;;;;;;;4939854;28;25080;-67
2024/01/18 02:41:48;;;;;;;16.70;10.90;;;;;;;;;;4946204;28;25106;-68
2024/01/18 02:44:15;;;;;;;17.95;11.02;;;;;;;;;;4944413;28;25087;-68
2024/01/18 02:46:41;;;;;;;13.80;9.63;;;;;;;;;;4954580;28;25079;-66
2024/01/18 02:49:07;;;;;;;14.25;6.40;;;;;;;;;;4953739;28;25061;-68
2024/01/18 02:51:33;;;;;;;14.50;5.85;;;;;;;;;;4947039;28;25058;-68
2024/01/18 02:53:59;;;;;;;11.77;5.57;;;;;;;;;;4947318;28;25125;-68
2024/01/18 02:56:25;;;;;;;15.15;5.30;;;;;;;;;;4946674;28;25136;-66
2024/01/18 02:58:51;;;;;;;14.02;5.63;;;;;;;;;;4957324;28;25096;-67
2024/01/18 03:01:17;;;;;;;14.00;5.60;;;;;;;;;;4954147;28;25082;-68
2024/01/18 03:03:43;;;;;;;8.02;5.03;;;;;;;;;;4952389;28;25059;-67
2024/01/18 03:06:09;;;;;;;9.45;5.65;;;;;;;;;;4953729;28;25141;-68
2024/01/18 03:08:36;;;;;;;7.93;4.60;;;;;;;;;;4949018;28;25141;-68
2024/01/18 03:11:02;;;;;;;8.70;3.95;;;;;;;;;;4950853;28;25061;-67
2024/01/18 03:13:28;;;;;;;10.00;3.67;;;;;;;;;;4948299;28;25119;-68
2024/01/18 03:15:54;;;;;;;9.93;3.78;;;;;;;;;;4954083;28;25077;-67
2024/01/18 03:18:20;;;;;;;10.50;4.18;;;;;;;;;;4953261;28;25066;-68
2024/01/18 03:20:45;;;;;;;10.70;4.13;;;;;;;;;;4951264;28;25100;-68
2024/01/18 03:23:12;;;;;;;8.77;3.42;;;;;;;;;;4951630;28;25071;-68
2024/01/18 03:25:38;;;;;;;9.27;4.03;;;;;;;;;;4950379;28;25077;-68
2024/01/18 03:28:04;;;;;;;11.15;4.10;;;;;;;;;;4951417;28;25068;-67
2024/01/18 03:30:30;;;;;;;10.45;4.00;;;;;;;;;;4951458;28;25073;-67
2024/01/18 03:32:56;;;;;;;9.52;3.65;;;;;;;;;;4944218;28;25066;-67
2024/01/18 03:35:22;;;;;;;7.13;3.78;;;;;;;;;;4947596;28;25094;-67
2024/01/18 03:37:48;;;;;;;12.48;3.95;;;;;;;;;;4951802;28;25110;-67
2024/01/18 03:40:14;;;;;;;8.15;3.90;;;;;;;;;;4948237;28;25064;-67
2024/01/18 03:42:43;;;;;;;9.40;4.38;;;;;;;;;;4948322;28;25144;-68
2024/01/18 03:45:09;;;;;;;9.45;4.70;;;;;;;;;;4949600;28;25072;-68
2024/01/18 03:47:35;;;;;;;10.77;4.78;;;;;;;;;;4949054;28;25058;-68
2024/01/18 03:50:01;;;;;;;8.57;6.28;;;;;;;;;;4948572;28;25070;-68
2024/01/18 03:52:27;;;;;;;10.10;4.43;;;;;;;;;;4947701;28;25077;-68
2024/01/18 03:54:53;;;;;;;11.07;4.15;;;;;;;;;;4949245;28;25117;-66
2024/01/18 03:57:19;;;;;;;9.85;4.68;;;;;;;;;;4947612;28;25103;-69
2024/01/18 03:59:46;;;;;;;9.32;4.75;;;;;;;;;;4945975;28;25094;-68
2024/01/18 04:02:13;;;;;;;6.03;4.47;;;;;;;;;;4949434;28;25059;-67
2024/01/18 04:04:39;;;;;;;11.82;5.10;;;;;;;;;;4947615;28;25086;-68
2024/01/18 04:07:05;;;;;;;15.18;6.25;;;;;;;;;;4950136;28;25119;-67
2024/01/18 04:09:31;;;;;;;13.45;4.93;;;;;;;;;;4951623;28;25151;-67
2024/01/18 04:11:57;;;;;;;6.35;4.90;;;;;;;;;;4950374;28;25107;-67
2024/01/18 04:14:23;;;;;;;9.15;5.53;;;;;;;;;;4947232;28;25063;-67
2024/01/18 04:16:49;;;;;;;11.00;5.85;;;;;;;;;;4948671;28;25139;-66
2024/01/18 04:19:15;;;;;;;8.90;5.45;;;;;;;;;;4947867;28;25155;-68
2024/01/18 04:21:41;;;;;;;7.95;6.45;;;;;;;;;;4945224;28;25074;-68
2024/01/18 04:24:07;;;;;;;8.38;5.63;;;;;;;;;;4948297;28;25171;-69
2024/01/18 04:26:34;;;;;;;9.98;5.20;;;;;;;;;;4946316;28;25053;-68
2024/01/18 04:29:00;;;;;;;10.00;6.05;;;;;;;;;;4942603;28;25060;-67
2024/01/18 04:31:26;;;;;;;13.20;6.15;;;;;;;;;;4940900;28;25111;-67
2024/01/18 04:33:52;;;;;;;9.30;6.05;;;;;;;;;;4949482;28;25104;-68
2024/01/18 04:36:18;;;;;;;15.27;5.05;;;;;;;;;;4942719;28;25065;-68
2024/01/18 04:38:44;;;;;;;8.93;5.75;;;;;;;;;;4942492;28;25049;-68
2024/01/18 04:41:10;;;;;;;8.13;5.85;;;;;;;;;;4943556;28;25070;-67
2024/01/18 04:43:36;;;;;;;12.25;5.80;;;;;;;;;;4951979;28;25103;-70
2024/01/18 04:46:04;;;;;;;8.60;5.47;;;;;;;;;;4955654;28;25155;-67
2024/01/18 04:48:30;;;;;;;9.38;5.30;;;;;;;;;;4955974;28;25071;-68
2024/01/18 04:50:56;;;;;;;9.85;5.65;;;;;;;;;;4953180;28;25062;-67
2024/01/18 04:53:21;;;;;;;9.27;5.90;;;;;;;;;;4958700;28;25050;-67
2024/01/18 04:55:47;;;;;;;10.32;5.55;;;;;;;;;;4948896;28;25102;-68
2024/01/18 04:58:13;;;;;;;9.65;5.68;;;;;;;;;;4951509;28;25065;-68
2024/01/18 05:00:39;;;;;;;10.00;5.80;;;;;;;;;;4946061;28;25074;-68
2024/01/18 05:03:07;;;;;;;9.65;6.25;;;;;;;;;;4949262;28;25068;-68
2024/01/18 05:05:33;;;;;;;11.80;7.93;;;;;;;;;;4946861;28;25069;-69
2024/01/18 05:07:59;;;;;;;12.77;6.75;;;;;;;;;;4940466;28;25072;-68
2024/01/18 05:10:25;;;;;;;8.65;6.03;;;;;;;;;;4951792;28;25079;-65
2024/01/18 05:12:52;;;;;;;15.25;6.35;;;;;;;;;;4947963;28;25071;-68
2024/01/18 05:15:18;;;;;;;8.80;5.63;;;;;;;;;;4944184;28;25105;-68
2024/01/18 05:17:47;;;;;;;12.55;6.28;;;;;;;;;;4957975;28;25045;-67
2024/01/18 05:20:13;;;;;;;8.98;6.35;;;;;;;;;;4941493;28;25081;-67
2024/01/18 05:22:42;;;;;;;11.65;6.55;;;;;;;;;;4954153;28;25080;-68
2024/01/18 05:25:08;;;;;;;12.18;5.70;;;;;;;;;;4941946;28;25153;-68
2024/01/18 05:27:34;;;;;;;13.10;6.90;;;;;;;;;;4952304;28;25079;-68
2024/01/18 05:30:00;;;;;;;7.72;5.35;;;;;;;;;;4949618;28;25078;-68
2024/01/18 05:32:27;;;;;;;9.05;6.10;;;;;;;;;;4942868;28;25087;-68
2024/01/18 05:34:53;;;;;;;9.55;5.50;;;;;;;;;;4948670;28;25149;-69
2024/01/18 05:37:23;;;;;;;11.43;6.38;;;;;;;;;;4956242;28;25082;-67
2024/01/18 05:39:50;;;;;;;11.82;6.10;;;;;;;;;;4946030;28;25055;-67
2024/01/18 05:42:18;;;;;;;10.25;6.80;;;;;;;;;;4962323;28;25077;-68
2024/01/18 05:44:44;;;;;;;8.07;5.53;;;;;;;;;;4962336;28;25058;-67
2024/01/18 05:47:10;;;;;;;10.90;6.35;;;;;;;;;;4940091;28;25065;-68
2024/01/18 05:49:36;;;;;;;10.15;6.03;;;;;;;;;;4944386;28;25074;-71
2024/01/18 05:52:03;;;;;;;10.93;6.88;;;;;;;;;;4947233;28;25062;-68
2024/01/18 05:54:29;;;;;;;9.52;7.03;;;;;;;;;;4942234;28;25103;-68
2024/01/18 05:56:55;;;;;;;8.68;7.18;;;;;;;;;;4945993;28;25093;-67
2024/01/18 05:59:20;;;;;;;10.82;7.10;;;;;;;;;;4948731;28;25074;-68
2024/01/18 06:01:46;;;;;;;13.43;8.20;;;;;;;;;;4945021;28;25075;-68
2024/01/18 06:04:13;;;;;;;11.20;6.40;;;;;;;;;;4945157;28;25057;-68
2024/01/18 06:06:39;;;;;;;11.43;6.40;;;;;;;;;;4953462;28;25102;-68
2024/01/18 06:09:05;;;;;;;13.27;6.03;;;;;;;;;;4950676;28;25068;-67
2024/01/18 06:11:31;;;;;;;7.70;6.35;;;;;;;;;;4946189;28;25036;-67
2024/01/18 06:13:57;;;;;;;11.57;6.22;;;;;;;;;;4941543;28;25070;-68
2024/01/18 06:16:23;;;;;;;10.77;6.60;;;;;;;;;;4962362;28;25073;-68
2024/01/18 06:18:49;;;;;;;12.60;6.95;;;;;;;;;;4958820;28;25093;-68
2024/01/18 06:21:15;;;;;;;14.95;7.03;;;;;;;;;;4944559;28;25065;-70
2024/01/18 06:23:41;;;;;;;14.93;6.70;;;;;;;;;;4944024;28;25148;-68
2024/01/18 06:26:13;;;;;;;13.73;6.07;;;;;;;;;;4946716;28;25068;-69
2024/01/18 06:28:39;;;;;;;9.82;5.60;;;;;;;;;;4948337;28;25080;-68
2024/01/18 06:31:06;;;;;;;8.68;5.50;;;;;;;;;;4948604;28;25112;-68
2024/01/18 06:33:32;;;;;;;9.88;5.85;;;;;;;;;;4950359;28;25051;-69
2024/01/18 06:35:58;;;;;;;10.02;6.20;;;;;;;;;;4954260;28;25059;-67
2024/01/18 06:38:24;;;;;;;10.45;5.32;;;;;;;;;;4959622;28;25100;-68
2024/01/18 06:40:50;;;;;;;11.35;5.55;;;;;;;;;;4954296;28;25081;-68
2024/01/18 06:43:16;;;;;;;10.60;6.70;;;;;;;;;;4955265;28;25070;-68
2024/01/18 06:45:42;;;;;;;16.02;6.75;;;;;;;;;;4963072;28;25060;-67
2024/01/18 06:48:08;;;;;;;12.23;7.60;;;;;;;;;;4949130;28;25069;-69
2024/01/18 06:50:35;;;;;;;11.48;7.65;;;;;;;;;;4950826;28;25057;-68
2024/01/18 06:53:03;;;;;;;8.75;6.57;;;;;;;;;;4948126;28;25113;-67
2024/01/18 06:55:29;;;;;;;9.70;6.22;;;;;;;;;;4947092;28;25062;-68
2024/01/18 06:57:55;;;;;;;16.02;9.00;;;;;;;;;;4945639;28;25127;-69
2024/01/18 07:00:24;;;;;;;12.70;7.95;;;;;;;;;;4948641;28;25093;-68
2024/01/18 07:02:50;;;;;;;11.73;7.50;;;;;;;;;;4940318;28;25070;-68
2024/01/18 07:05:20;;;;;;;13.43;7.68;;;;;;;;;;4944307;28;25112;-68
2024/01/18 07:07:46;;;;;;;14.55;7.80;;;;;;;;;;4954963;28;25077;-67
2024/01/18 07:10:12;;;;;;;11.73;8.07;;;;;;;;;;4940263;28;25137;-68
2024/01/18 07:12:38;;;;;;;17.17;8.70;;;;;;;;;;4941285;28;25133;-69
2024/01/18 07:15:07;;;;;;;16.90;7.07;;;;;;;;;;4950169;28;25107;-67
2024/01/18 07:17:33;;;;;;;16.13;7.72;;;;;;;;;;4953609;28;25053;-68
2024/01/18 07:19:59;;;;;;;15.50;7.72;;;;;;;;;;4950886;28;25055;-68
2024/01/18 07:22:25;;;;;;;24.08;8.40;;;;;;;;;;4956166;28;25117;-68
2024/01/18 07:24:52;;;;;;;14.98;7.65;;;;;;;;;;4956191;28;25087;-67
2024/01/18 07:27:18;;;;;;;12.55;7.85;;;;;;;;;;4949070;28;25079;-68
2024/01/18 07:29:44;;;;;;;17.13;7.53;;;;;;;;;;4945041;28;25101;-69
2024/01/18 07:32:10;;;;;;;13.07;7.78;;;;;;;;;;4952645;28;25140;-68
2024/01/18 07:34:36;;;;;;;12.68;6.78;;;;;;;;;;4960390;28;25138;-68
2024/01/18 07:37:03;;;;;;;15.30;8.15;;;;;;;;;;4958668;28;25101;-68
2024/01/18 07:39:28;;;;;;;16.88;8.05;;;;;;;;;;4951998;28;25076;-68
2024/01/18 07:41:54;;;;;;;14.20;7.18;;;;;;;;;;4948682;28;25072;-67
2024/01/18 07:44:20;;;;;;;15.80;7.07;;;;;;;;;;4949081;28;25063;-67
2024/01/18 07:46:47;;;;;;;11.57;7.13;;;;;;;;;;4943709;28;25119;-69
2024/01/18 07:49:13;;;;;;;15.75;7.50;;;;;;;;;;4954961;28;25096;-65
2024/01/18 07:51:39;;;;;;;13.35;7.35;;;;;;;;;;4955375;28;25072;-69
2024/01/18 07:54:05;;;;;;;16.20;7.35;;;;;;;;;;4953379;28;25072;-67
2024/01/18 07:56:31;;;;;;;16.15;8.90;;;;;;;;;;4954766;28;25070;-68
2024/01/18 07:58:57;;;;;;;15.43;7.93;;;;;;;;;;4951831;28;25067;-65
2024/01/18 08:01:23;;;;;;;16.23;7.90;;;;;;;;;;4945209;28;25084;-68
2024/01/18 08:03:49;;;;;;;15.32;8.73;;;;;;;;;;4947465;28;25157;-68
2024/01/18 08:06:15;;;;;;;16.83;9.18;;;;;;;;;;4945105;28;25072;-68
2024/01/18 08:08:41;;;;;;;21.25;11.25;;;;;;;;;;4947044;28;25091;-67
2024/01/18 08:11:10;;;;;;;14.40;8.80;;;;;;;;;;4942228;28;25050;-68
2024/01/18 08:13:36;;;;;;;14.90;9.73;;;;;;;;;;4941224;28;25137;-68
2024/01/18 08:16:02;;;;;;;14.75;8.18;;;;;;;;;;4950192;28;25151;-68
2024/01/18 08:18:28;;;;;;;17.15;9.10;;;;;;;;;;4945374;28;25162;-68
2024/01/18 08:20:54;;;;;;;17.00;8.85;;;;;;;;;;4940948;28;25086;-68
2024/01/18 08:23:23;;;;;;;12.52;7.95;;;;;;;;;;4950897;28;25078;-67
2024/01/18 08:25:49;;;;;;;15.77;8.77;;;;;;;;;;4951683;28;25092;-67
2024/01/18 08:28:15;;;;;;;13.38;8.52;;;;;;;;;;4946434;28;25086;-68
2024/01/18 08:30:41;;;;;;;21.33;8.55;;;;;;;;;;4953937;28;25106;-69
2024/01/18 08:33:10;;;;;;;15.63;9.23;;;;;;;;;;4944710;28;25060;-69
2024/01/18 08:35:36;;;;;;;18.00;8.43;;;;;;;;;;4951617;28;25054;-70
2024/01/18 08:38:03;;;;;;;19.10;8.10;;;;;;;;;;4946274;28;25095;-69
2024/01/18 08:40:29;;;;;;;18.02;8.73;;;;;;;;;;4953861;28;25135;-68
2024/01/18 08:42:56;;;;;;;21.27;8.85;;;;;;;;;;4953739;28;25062;-69
2024/01/18 08:45:22;;;;;;;18.00;8.65;;;;;;;;;;4954096;28;25052;-66
2024/01/18 08:47:48;;;;;;;17.45;8.10;;;;;;;;;;4947206;28;25084;-67
2024/01/18 08:50:15;;;;;;;15.60;8.20;;;;;;;;;;4947557;28;25085;-68
2024/01/18 08:52:41;;;;;;;20.17;9.68;;;;;;;;;;4950279;28;25157;-69
2024/01/18 08:55:07;;;;;;;13.65;9.20;;;;;;;;;;4945194;28;25112;-70
2024/01/18 08:57:33;;;;;;;12.65;8.80;;;;;;;;;;4945394;28;25077;-67
2024/01/18 08:59:59;;;;;;;14.57;8.80;;;;;;;;;;4953394;28;25145;-67
2024/01/18 09:02:25;;;;;;;14.68;9.55;;;;;;;;;;4959143;28;25063;-70
2024/01/18 09:04:51;;;;;;;18.23;9.48;;;;;;;;;;4950246;28;25104;-68
2024/01/18 09:07:17;;;;;;;17.50;10.38;;;;;;;;;;4951514;28;25055;-68
2024/01/18 09:09:44;;;;;;;19.42;8.80;;;;;;;;;;4950549;28;25135;-67
2024/01/18 09:12:10;;;;;;;21.40;10.13;;;;;;;;;;4950587;28;25071;-68
2024/01/18 09:14:36;;;;;;;20.60;10.00;;;;;;;;;;4949861;28;25051;-68
2024/01/18 09:17:02;;;;;;;15.70;10.20;;;;;;;;;;4951832;28;25056;-68
2024/01/18 09:19:30;;;;;;;20.95;10.63;;;;;;;;;;4951611;28;25150;-67
2024/01/18 09:21:57;;;;;;;18.05;10.23;;;;;;;;;;4947040;28;25102;-68
2024/01/18 09:24:23;;;;;;;16.00;10.48;;;;;;;;;;4948036;28;25115;-67
2024/01/18 09:26:49;;;;;;;20.08;11.57;;;;;;;;;;4942908;28;25070;-69
2024/01/18 09:29:15;;;;;;;21.65;10.88;;;;;;;;;;4944466;28;25089;-68
2024/01/18 09:31:41;;;;;;;21.13;12.07;;;;;;;;;;4947845;28;25080;-67
2024/01/18 09:34:07;;;;;;;16.40;10.32;;;;;;;;;;4951202;28;25071;-68
2024/01/18 09:36:33;;;;;;;13.93;9.23;;;;;;;;;;4943838;28;25052;-68
2024/01/18 09:38:59;;;;;;;21.00;10.07;;;;;;;;;;4944118;28;25063;-68
2024/01/18 09:41:27;;;;;;;20.23;9.77;;;;;;;;;;4945548;28;25090;-68
2024/01/18 09:43:56;;;;;;;18.55;8.80;;;;;;;;;;4940611;28;25058;-68
2024/01/18 09:46:23;;;;;;;18.95;8.15;;;;;;;;;;4949574;28;25094;-69
2024/01/18 09:48:49;;;;;;;18.00;7.65;;;;;;;;;;4951778;28;25127;-68
2024/01/18 09:51:16;;;;;;;16.85;7.43;;;;;;;;;;4945921;28;25145;-68
2024/01/18 09:53:48;;;;;;;16.35;7.70;;;;;;;;;;4947997;28;24930;-69
2024/01/18 09:56:31;;;;;;;12.10;7.47;;;;;;;;;;4955233;28;25054;-67
2024/01/18 09:58:58;;;;;;;;;;;;;;;;;;4954792;28;25073;-68
2024/01/18 10:01:24;;;;;;;14.35;6.28;;;;;;;;;;4949864;28;24109;-67
2024/01/18 10:03:51;;;;;;;13.32;5.70;;;;;;;;;;4954886;28;25146;-68
2024/01/18 10:06:17;;;;;;;9.93;5.25;;;;;;;;;;4950007;28;25064;-69
2024/01/18 10:08:45;;;;;;;12.00;5.18;;;;;;;;;;4953054;28;25087;-68
2024/01/18 10:11:11;;;;;;;12.55;5.10;;;;;;;;;;4945083;28;25126;-69
2024/01/18 10:13:52;;;;;;;5.95;3.47;;;;;;;;;;4952139;28;25061;-68
2024/01/18 10:16:32;;;;;;;15.25;4.13;;;;;;;;;;4942240;28;25079;-70
2024/01/18 10:19:03;;;;;;;8.88;3.40;;;;;;;;;;4946255;28;25140;-67
2024/01/18 10:21:30;;;;;;;5.20;1.98;;;;;;;;;;4947164;28;25079;-69
2024/01/18 10:23:56;;;;;;;3.00;1.13;;;;;;;;;;4945903;28;25059;-70
2024/01/18 10:26:22;;;;;;;5.82;1.13;;;;;;;;;;4950752;28;25170;-69
2024/01/18 10:28:51;;;;;;;4.68;1.10;;;;;;;;;;4944470;28;25154;-67
2024/01/18 10:31:17;;;;;;;4.82;0.80;;;;;;;;;;4948251;28;25108;-68
2024/01/18 10:33:45;;;;;;;2.58;0.80;;;;;;;;;;4946596;28;25106;-67
2024/01/18 10:36:11;;;;;;;2.42;0.80;;;;;;;;;;4948317;28;25087;-67
2024/01/18 10:38:39;;;;;;;4.00;1.27;;;;;;;;;;4951359;28;25107;-66
2024/01/18 10:41:05;;;;;;;5.97;1.00;;;;;;;;;;4946462;28;25074;-67
2024/01/18 10:43:31;;;;;;;4.95;0.98;;;;;;;;;;4947437;28;25067;-66
2024/01/18 10:46:00;;;;;;;3.15;1.20;;;;;;;;;;4945825;28;25060;-68
2024/01/18 10:48:26;;;;;;;1.70;1.13;;;;;;;;;;4944981;28;25054;-66
2024/01/18 10:50:56;;;;;;;3.10;1.30;;;;;;;;;;4947520;28;25100;-66
2024/01/18 10:53:35;;;;;;;6.80;1.80;;;;;;;;;;4947400;28;25090;-66
2024/01/18 10:56:02;;;;;;;7.50;1.92;;;;;;;;;;4950019;28;25158;-67
2024/01/18 10:58:29;;;;;;;5.20;1.70;;;;;;;;;;4942637;28;25068;-67
2024/01/18 11:00:55;;;;;;;7.20;2.30;;;;;;;;;;4946493;28;25065;-67
2024/01/18 11:03:21;;;;;;;3.53;2.22;;;;;;;;;;4938014;28;25167;-68
2024/01/18 11:05:50;;;;;;;9.13;2.58;;;;;;;;;;4951817;28;25137;-66
2024/01/18 11:08:21;;;;;;;3.83;1.98;;;;;;;;;;4945769;28;25052;-67
2024/01/18 11:10:47;;;;;;;3.70;2.45;;;;;;;;;;4948077;28;25061;-67
2024/01/18 11:13:14;;;;;;;4.05;2.42;;;;;;;;;;4951593;28;25077;-67
2024/01/18 11:15:42;;;;;;;5.53;3.20;;;;;;;;;;4958332;28;25057;-67
2024/01/18 11:18:09;;;;;;;8.05;4.00;;;;;;;;;;4949135;28;25049;-67
2024/01/18 11:20:55;;;;;;;7.47;5.25;;;;;;;;;;4952549;28;25057;-67
2024/01/18 11:23:48;;;;;;;5.95;3.55;;;;;;;;;;4950533;28;25055;-67
2024/01/18 11:26:21;;;;;;;5.05;2.95;;;;;;;;;;4949140;28;25045;-69
2024/01/18 11:28:47;;;;;;;7.70;3.15;;;;;;;;;;4942171;28;25068;-70
2024/01/18 11:31:13;;;;;;;6.82;2.78;;;;;;;;;;4952358;28;25060;-68
2024/01/18 11:33:39;;;;;;;6.75;3.20;;;;;;;;;;4947757;28;25051;-67
2024/01/18 11:36:08;;;;;;;4.53;2.92;;;;;;;;;;4949956;28;25139;-68
2024/01/18 11:38:43;;;;;;;5.95;3.67;;;;;;;;;;4943680;28;25086;-67
2024/01/18 11:41:09;;;;;;;8.73;2.88;;;;;;;;;;4950232;28;25079;-67
2024/01/18 11:43:54;;;;;;;7.30;2.35;;;;;;;;;;4947700;28;25133;-68
2024/01/18 11:46:38;;;;;;;8.00;3.92;;;;;;;;;;4945279;28;25143;-66
2024/01/18 11:49:05;;;;;;;9.15;2.55;;;;;;;;;;4948933;28;25062;-67
2024/01/18 11:51:31;;;;;;;9.30;2.50;;;;;;;;;;4949324;28;25070;-66
2024/01/18 11:54:03;;;;;;;7.75;2.00;;;;;;;;;;4952474;28;25154;-67
2024/01/18 11:56:29;;;;;;;10.95;2.50;;;;;;;;;;4951134;28;25097;-67
2024/01/18 11:58:55;;;;;;;7.53;2.58;;;;;;;;;;4953775;28;25071;-67
2024/01/18 12:01:22;;;;;;;10.07;2.35;;;;;;;;;;4952377;28;25296;-66
2024/01/18 12:03:48;;;;;;;8.73;2.63;;;;;;;;;;4952351;28;25064;-68
2024/01/18 12:06:14;;;;;;;12.15;2.55;;;;;;;;;;4950276;28;25068;-68
2024/01/18 12:08:41;;;;;;;7.57;2.53;;;;;;;;;;4946720;28;25067;-68
2024/01/18 12:11:07;;;;;;;11.52;2.47;;;;;;;;;;4949074;28;25069;-67
2024/01/18 12:13:33;;;;;;;5.85;2.35;;;;;;;;;;4951645;28;25079;-67
2024/01/18 12:15:59;;;;;;;4.05;2.20;;;;;;;;;;4946769;28;25060;-67
2024/01/18 12:18:25;;;;;;;7.97;2.47;;;;;;;;;;4946955;28;25053;-66
2024/01/18 12:20:51;;;;;;;5.57;2.40;;;;;;;;;;4948691;28;25054;-68
2024/01/18 12:23:17;;;;;;;7.35;2.90;;;;;;;;;;4952540;28;25055;-66
2024/01/18 12:25:44;;;;;;;7.72;2.88;;;;;;;;;;4952170;28;25147;-66
2024/01/18 12:28:10;;;;;;;4.20;2.38;;;;;;;;;;4954106;28;25081;-65
2024/01/18 12:30:42;;;;;;;4.53;1.80;;;;;;;;;;4955575;28;25116;-66
2024/01/18 12:33:08;;;;;;;4.18;2.20;;;;;;;;;;4950213;28;25042;-65
2024/01/18 12:35:36;;;;;;;5.38;2.40;;;;;;;;;;4951736;28;25061;-65
2024/01/18 12:38:03;;;;;;;4.50;1.80;;;;;;;;;;4949864;28;25103;-67
2024/01/18 12:40:29;;;;;;;4.28;2.22;;;;;;;;;;4951905;28;25055;-65
2024/01/18 12:43:01;;;;;;;4.25;2.30;;;;;;;;;;4951581;28;25143;-66
2024/01/18 12:45:27;;;;;;;2.15;2.00;;;;;;;;;;4950375;28;25055;-67
2024/01/18 12:47:53;;;;;;;7.15;3.95;;;;;;;;;;4952757;28;25060;-66
2024/01/18 12:50:19;;;;;;;4.55;2.85;;;;;;;;;;4952268;28;25105;-65
2024/01/18 12:52:45;;;;;;;3.72;2.28;;;;;;;;;;4948496;28;25064;-66
2024/01/18 12:55:11;;;;;;;5.43;3.30;;;;;;;;;;4945365;28;25078;-65
2024/01/18 12:57:38;;;;;;;5.80;2.95;;;;;;;;;;4949444;28;25060;-66
2024/01/18 13:00:04;;;;;;;4.05;3.67;;;;;;;;;;4950076;28;25065;-65
2024/01/18 13:02:30;;;;;;;3.53;3.30;;;;;;;;;;4952462;28;25059;-65
2024/01/18 13:05:01;;;;;;;4.95;3.40;;;;;;;;;;4945908;28;25071;-67
2024/01/18 13:07:27;;;;;;;4.43;3.50;;;;;;;;;;4950805;28;25149;-67
2024/01/18 13:09:53;;;;;;;4.35;3.60;;;;;;;;;;4953869;28;25083;-67
2024/01/18 13:12:19;;;;;;;4.43;3.60;;;;;;;;;;4952949;28;25056;-68
2024/01/18 13:14:49;;;;;;;4.45;3.50;;;;;;;;;;4945519;28;25134;-67
2024/01/18 13:17:18;;;;;;;3.42;3.13;;;;;;;;;;4939396;28;25071;-67
2024/01/18 13:19:44;;;;;;;4.57;2.60;;;;;;;;;;4945685;28;25126;-66
2024/01/18 13:22:10;;;;;;;2.58;2.03;;;;;;;;;;4945676;28;25080;-66
2024/01/18 13:24:36;;;;;;;5.95;2.28;;;;;;;;;;4936945;28;25147;-68
2024/01/18 13:27:04;;;;;;;3.05;2.50;;;;;;;;;;4950523;28;25153;-67
2024/01/18 13:29:30;;;;;;;6.22;2.60;;;;;;;;;;4945270;28;25059;-67
2024/01/18 13:31:56;;;;;;;4.53;2.45;;;;;;;;;;4945777;28;25072;-66
2024/01/18 13:34:22;;;;;;;4.20;2.25;;;;;;;;;;4943670;28;25066;-66
2024/01/18 13:36:50;;;;;;;6.13;2.10;;;;;;;;;;4945775;28;25107;-68
2024/01/18 13:39:17;;;;;;;4.28;1.88;;;;;;;;;;4942612;28;25107;-67
2024/01/18 13:41:43;;;;;;;4.43;2.17;;;;;;;;;;4943247;28;25044;-65
2024/01/18 13:44:09;;;;;;;2.95;2.05;;;;;;;;;;4945046;28;25145;-65
2024/01/18 13:46:37;;;;;;;5.90;2.28;;;;;;;;;;4947696;28;25062;-65
2024/01/18 13:49:03;;;;;;;7.00;1.85;;;;;;;;;;4946020;28;25147;-64
2024/01/18 13:51:30;;;;;;;10.57;2.08;;;;;;;;;;4950988;28;25090;-65
2024/01/18 13:53:56;;;;;;;5.70;2.00;;;;;;;;;;4951381;28;25059;-65
2024/01/18 13:56:23;;;;;;;3.97;1.98;;;;;;;;;;4941779;28;25048;-65
2024/01/18 13:58:49;;;;;;;3.65;2.03;;;;;;;;;;4947706;28;25149;-65
2024/01/18 14:01:15;;;;;;;4.13;1.75;;;;;;;;;;4947298;28;25157;-64
2024/01/18 14:03:44;;;;;;;2.85;1.73;;;;;;;;;;4943276;28;25122;-64
2024/01/18 14:06:12;;;;;;;2.80;1.63;;;;;;;;;;4942808;28;25161;-64
2024/01/18 14:08:38;;;;;;;4.50;1.50;;;;;;;;;;4943764;28;25267;-63
2024/01/18 14:11:04;;;;;;;2.75;2.22;;;;;;;;;;4940459;28;25052;-64
2024/01/18 14:13:30;;;;;;;5.30;2.05;;;;;;;;;;4945272;28;25112;-63
2024/01/18 14:15:56;;;;;;;4.93;1.55;;;;;;;;;;4941389;28;25066;-65
2024/01/18 14:18:22;;;;;;;6.28;1.83;;;;;;;;;;4941520;28;25139;-65
2024/01/18 14:20:49;;;;;;;1.70;1.60;;;;;;;;;;4943054;28;25125;-66
2024/01/18 14:23:15;;;;;;;3.92;2.25;;;;;;;;;;4940512;28;25055;-65
2024/01/18 14:25:41;;;;;;;4.05;2.05;;;;;;;;;;4941980;28;25065;-64
2024/01/18 14:28:06;;;;;;;2.78;2.15;;;;;;;;;;4937570;28;25093;-66
2024/01/18 14:30:34;;;;;;;5.85;2.03;;;;;;;;;;4946408;28;25060;-66